Andrews AFB, Maryland
Current Conditions -  °F | °C
As of 6:58 AM on Friday 21 Nov 2014 (Local Time) from KADW Reporting Station
Clear Clear  
Wind Chill: 19°   Ceiling: Unl
Heat Index: 29°   Visibility: 10mi
Dew Point:   Wind: 12mph
Humidity: 42%   Direction: 300°WNW
Pressure: 30.32"   Gusts: NA
Location:  38.8°N, 76.87°W
Report Text: KADW 211158Z AUTO 30010KT 10SM CLR M02/M13 A3032 RMK AO2 SLP277 T10181133 10009 21018 52037 $
Loading
Personal Weather Stations






























Interactive Weather Map New forecast layout! Learn more

10-Day Weather Forecast

Advertisements
Track Severe Weather on mobile